createdAt,value
2017-04-29T00:00:14.810Z,1012.58
2017-04-29T00:01:23.811Z,1012.62
2017-04-29T00:02:33.673Z,1012.63
2017-04-29T00:03:43.608Z,1012.61
2017-04-29T00:04:53.843Z,1012.66
2017-04-29T00:06:04.084Z,1012.64
2017-04-29T00:07:13.685Z,1012.63
2017-04-29T00:08:23.135Z,1012.58
2017-04-29T00:09:33.058Z,1012.65
2017-04-29T00:10:43.348Z,1012.67
2017-04-29T00:11:53.256Z,1012.66
2017-04-29T00:13:02.863Z,1012.69
2017-04-29T00:14:12.939Z,1012.68
2017-04-29T00:15:21.938Z,1012.74
2017-04-29T00:16:31.247Z,1012.73
2017-04-29T00:17:41.210Z,1012.75
2017-04-29T00:18:51.148Z,1012.75
2017-04-29T00:20:01.003Z,1012.73
2017-04-29T00:21:10.606Z,1012.68
2017-04-29T00:22:20.209Z,1012.69
2017-04-29T00:23:29.810Z,1012.7
2017-04-29T00:24:39.730Z,1012.69
2017-04-29T00:25:50.309Z,1012.66
2017-04-29T00:26:59.921Z,1012.66
2017-04-29T00:28:09.522Z,1012.66
2017-04-29T00:29:19.134Z,1012.65
2017-04-29T00:30:29.359Z,1012.67
2017-04-29T00:31:39.375Z,1012.64
2017-04-29T00:32:49.309Z,1012.64
2017-04-29T00:33:59.226Z,1012.69
2017-04-29T00:35:08.830Z,1012.7
2017-04-29T00:36:19.044Z,1012.7
2017-04-29T00:37:29.102Z,1012.69
2017-04-29T00:38:39.018Z,1012.71
2017-04-29T00:39:48.943Z,1012.7
2017-04-29T00:40:58.850Z,1012.68
2017-04-29T00:42:08.445Z,1012.64
2017-04-29T00:43:18.201Z,1012.66
2017-04-29T00:44:28.110Z,1012.67
2017-04-29T00:45:38.017Z,1012.63
2017-04-29T00:46:47.943Z,1012.6
2017-04-29T00:47:57.858Z,1012.64
2017-04-29T00:49:08.128Z,1012.62
2017-04-29T00:50:18.348Z,1012.63
2017-04-29T00:51:28.560Z,1012.66
2017-04-29T00:52:38.487Z,1012.65
2017-04-29T00:53:48.401Z,1012.6
2017-04-29T00:54:58.264Z,1012.63
2017-04-29T00:56:08.179Z,1012.59
2017-04-29T00:57:18.090Z,1012.65
2017-04-29T00:58:27.686Z,1012.63
2017-04-29T00:59:37.601Z,1012.68
2017-04-29T01:00:47.502Z,1012.68
2017-04-29T01:01:56.793Z,1012.66
2017-04-29T01:03:07.026Z,1012.68
2017-04-29T01:04:16.963Z,1012.65
2017-04-29T01:05:27.183Z,1012.69
2017-04-29T01:06:37.747Z,1012.75
2017-04-29T01:07:47.681Z,1012.74
2017-04-29T01:08:57.617Z,1012.75
2017-04-29T01:10:07.551Z,1012.75
2017-04-29T01:11:17.450Z,1012.78
2017-04-29T01:12:26.994Z,1012.82
2017-04-29T01:13:37.208Z,1012.82
2017-04-29T01:14:47.441Z,1012.82
2017-04-29T01:15:57.668Z,1012.84
2017-04-29T01:17:07.574Z,1012.83
2017-04-29T01:18:17.740Z,1012.8
2017-04-29T01:19:27.966Z,1012.83
2017-04-29T01:20:37.565Z,1012.82
2017-04-29T01:21:47.177Z,1012.82
2017-04-29T01:22:57.083Z,1012.86
2017-04-29T01:24:06.548Z,1012.82
2017-04-29T01:25:16.455Z,1012.83
2017-04-29T01:26:26.061Z,1012.8
2017-04-29T01:27:35.973Z,1012.83
2017-04-29T01:28:45.895Z,1012.86
2017-04-29T01:29:55.751Z,1012.85
2017-04-29T01:31:05.668Z,1012.85
2017-04-29T01:32:15.575Z,1012.87
2017-04-29T01:33:25.806Z,1012.93
2017-04-29T01:34:36.034Z,1012.94
2017-04-29T01:35:46.261Z,1012.93
2017-04-29T01:36:56.495Z,1012.96
2017-04-29T01:38:06.398Z,1012.94
2017-04-29T01:39:16.001Z,1012.94
2017-04-29T01:40:25.605Z,1012.94
2017-04-29T01:41:36.129Z,1012.92
2017-04-29T01:42:45.737Z,1012.91
2017-04-29T01:43:55.349Z,1012.9
2017-04-29T01:45:05.577Z,1012.91
2017-04-29T01:46:15.176Z,1012.93
2017-04-29T01:47:24.600Z,1012.89
2017-04-29T01:48:34.517Z,1012.87
2017-04-29T01:49:44.744Z,1012.9
2017-04-29T01:50:54.352Z,1012.89
2017-04-29T01:52:04.565Z,1012.94
2017-04-29T01:53:14.570Z,1012.95
2017-04-29T01:54:23.867Z,1012.95
2017-04-29T01:55:33.781Z,1012.96
2017-04-29T01:56:43.400Z,1012.99
2017-04-29T01:57:53.311Z,1012.99
2017-04-29T01:59:03.484Z,1012.98
2017-04-29T02:00:13.400Z,1013.01
2017-04-29T02:01:23.301Z,1012.99
2017-04-29T02:02:32.911Z,1013.06
2017-04-29T02:03:43.131Z,1013.03
2017-04-29T02:04:53.401Z,1013.06
2017-04-29T02:06:03.015Z,1013.03
2017-04-29T02:07:12.923Z,1013.05
2017-04-29T02:08:22.834Z,1013.09
2017-04-29T02:09:32.125Z,1013.07
2017-04-29T02:10:42.453Z,1013.02
2017-04-29T02:11:52.369Z,1013.05
2017-04-29T02:13:01.974Z,1013.04
2017-04-29T02:14:11.586Z,1013.01
2017-04-29T02:15:21.511Z,1013.01
2017-04-29T02:16:31.422Z,1013.06
2017-04-29T02:17:41.341Z,1013.06
2017-04-29T02:18:51.582Z,1013.06
2017-04-29T02:20:01.205Z,1013.03
2017-04-29T02:21:11.120Z,1013.01
2017-04-29T02:22:20.724Z,1013.01
2017-04-29T02:23:30.943Z,1013.07
2017-04-29T02:24:40.564Z,1013.08
2017-04-29T02:25:50.474Z,1013.07
2017-04-29T02:27:00.684Z,1013.07
2017-04-29T02:28:10.856Z,1013.08
2017-04-29T02:29:20.466Z,1013.04
2017-04-29T02:30:30.383Z,1013.04
2017-04-29T02:31:39.978Z,1013.05
2017-04-29T02:32:49.895Z,1013.09
2017-04-29T02:34:00.212Z,1013.05
2017-04-29T02:35:10.133Z,1013.1
2017-04-29T02:36:20.341Z,1013.08
2017-04-29T02:37:30.248Z,1013.11
2017-04-29T02:38:40.161Z,1013.13
2017-04-29T02:39:49.757Z,1013.12
2017-04-29T02:40:59.979Z,1013.12
2017-04-29T02:42:09.902Z,1013.1
2017-04-29T02:43:19.816Z,1013.09
2017-04-29T02:44:29.736Z,1013.08
2017-04-29T02:45:39.959Z,1013.09
2017-04-29T02:46:49.915Z,1013.08
2017-04-29T02:48:00.136Z,1013.1
2017-04-29T02:49:10.051Z,1013.12
2017-04-29T02:50:20.271Z,1013.16
2017-04-29T02:51:30.492Z,1013.19
2017-04-29T02:52:40.716Z,1013.15
2017-04-29T02:53:50.969Z,1013.2
2017-04-29T02:55:01.224Z,1013.22
2017-04-29T02:56:11.125Z,1013.19
2017-04-29T02:57:21.197Z,1013.21
2017-04-29T02:58:30.797Z,1013.2
2017-04-29T02:59:40.414Z,1013.2
2017-04-29T03:00:50.322Z,1013.19
2017-04-29T03:01:59.924Z,1013.26
2017-04-29T03:03:10.084Z,1013.27
2017-04-29T03:04:20.007Z,1013.29
2017-04-29T03:05:29.330Z,1013.28
2017-04-29T03:06:38.629Z,1013.28
2017-04-29T03:07:47.966Z,1013.32
2017-04-29T03:08:58.240Z,1013.3
2017-04-29T03:10:08.464Z,1013.27
2017-04-29T03:11:18.374Z,1013.29
2017-04-29T03:12:28.285Z,1013.29
2017-04-29T03:13:38.209Z,1013.32
2017-04-29T03:14:48.425Z,1013.28
2017-04-29T03:15:58.335Z,1013.29
2017-04-29T03:17:08.569Z,1013.33
2017-04-29T03:18:17.584Z,1013.33
2017-04-29T03:19:27.510Z,1013.37
2017-04-29T03:20:38.473Z,1013.38
2017-04-29T03:21:48.383Z,1013.38
2017-04-29T03:22:57.991Z,1013.41
2017-04-29T03:24:07.905Z,1013.41
2017-04-29T03:25:18.138Z,1013.37
2017-04-29T03:26:29.096Z,1013.44
2017-04-29T03:27:39.014Z,1013.4
2017-04-29T03:28:48.631Z,1013.4
2017-04-29T03:29:58.852Z,1013.4
2017-04-29T03:31:08.460Z,1013.39
2017-04-29T03:32:18.377Z,1013.4
2017-04-29T03:33:27.995Z,1013.42
2017-04-29T03:34:37.916Z,1013.46
2017-04-29T03:35:47.830Z,1013.43
2017-04-29T03:36:57.747Z,1013.48
2017-04-29T03:38:08.875Z,1013.43
2017-04-29T03:39:18.475Z,1013.43
2017-04-29T03:40:28.101Z,1013.46
2017-04-29T03:41:37.399Z,1013.46
2017-04-29T03:42:47.624Z,1013.48
2017-04-29T03:43:58.021Z,1013.46
2017-04-29T03:45:08.256Z,1013.46
2017-04-29T03:46:18.479Z,1013.44
2017-04-29T03:47:28.088Z,1013.46
2017-04-29T03:48:37.391Z,1013.5
2017-04-29T03:49:48.483Z,1013.48
2017-04-29T03:50:58.174Z,1013.51
2017-04-29T03:52:07.471Z,1013.53
2017-04-29T03:53:17.688Z,1013.52
2017-04-29T03:54:27.597Z,1013.53
2017-04-29T03:55:37.491Z,1013.49
2017-04-29T03:56:47.729Z,1013.49
2017-04-29T03:57:57.342Z,1013.49
2017-04-29T03:59:07.273Z,1013.47
2017-04-29T04:00:16.891Z,1013.55
2017-04-29T04:01:26.958Z,1013.53
2017-04-29T04:02:36.570Z,1013.54
2017-04-29T04:03:46.483Z,1013.57
2017-04-29T04:04:56.406Z,1013.6
2017-04-29T04:06:06.013Z,1013.6
2017-04-29T04:07:16.178Z,1013.62
2017-04-29T04:08:26.084Z,1013.63
2017-04-29T04:09:36.306Z,1013.64
2017-04-29T04:10:46.212Z,1013.63
2017-04-29T04:11:56.455Z,1013.59
2017-04-29T04:13:06.219Z,1013.59
2017-04-29T04:14:16.466Z,1013.61
2017-04-29T04:15:26.685Z,1013.57
2017-04-29T04:16:36.601Z,1013.63
2017-04-29T04:17:46.813Z,1013.57
2017-04-29T04:18:57.384Z,1013.55
2017-04-29T04:20:07.001Z,1013.56
2017-04-29T04:21:17.222Z,1013.55
2017-04-29T04:22:27.446Z,1013.57
2017-04-29T04:23:37.379Z,1013.54
2017-04-29T04:24:47.910Z,1013.53
2017-04-29T04:25:57.210Z,1013.56
2017-04-29T04:27:07.123Z,1013.56
2017-04-29T04:28:17.050Z,1013.53
2017-04-29T04:29:27.349Z,1013.59
2017-04-29T04:30:37.061Z,1013.52
2017-04-29T04:31:47.281Z,1013.57
2017-04-29T04:32:57.496Z,1013.55
2017-04-29T04:34:07.418Z,1013.53
2017-04-29T04:35:17.350Z,1013.56
2017-04-29T04:36:28.306Z,1013.58
2017-04-29T04:37:37.605Z,1013.55
2017-04-29T04:38:47.515Z,1013.56
2017-04-29T04:39:57.760Z,1013.53
2017-04-29T04:41:07.977Z,1013.52
2017-04-29T04:42:18.270Z,1013.51
2017-04-29T04:43:28.183Z,1013.53
2017-04-29T04:44:38.103Z,1013.55
2017-04-29T04:45:48.337Z,1013.54
2017-04-29T04:46:58.572Z,1013.55
2017-04-29T04:48:08.177Z,1013.53
2017-04-29T04:49:17.487Z,1013.58
2017-04-29T04:50:27.708Z,1013.54
2017-04-29T04:51:37.933Z,1013.57
2017-04-29T04:52:47.891Z,1013.55
2017-04-29T04:53:58.463Z,1013.59
2017-04-29T04:55:07.778Z,1013.61
2017-04-29T04:56:17.998Z,1013.61
2017-04-29T04:57:27.609Z,1013.6
2017-04-29T04:58:37.225Z,1013.65
2017-04-29T04:59:47.389Z,1013.62
2017-04-29T05:00:57.308Z,1013.62
2017-04-29T05:02:07.255Z,1013.58
2017-04-29T05:03:17.178Z,1013.58
2017-04-29T05:04:26.780Z,1013.61
2017-04-29T05:05:37.016Z,1013.59
2017-04-29T05:06:46.623Z,1013.65
2017-04-29T05:07:56.557Z,1013.61
2017-04-29T05:09:06.488Z,1013.62
2017-04-29T05:10:16.709Z,1013.6
2017-04-29T05:11:26.983Z,1013.61
2017-04-29T05:12:36.633Z,1013.64
2017-04-29T05:13:46.873Z,1013.62
2017-04-29T05:14:56.795Z,1013.65
2017-04-29T05:16:06.712Z,1013.62
2017-04-29T05:17:16.462Z,1013.62
2017-04-29T05:18:26.702Z,1013.61
2017-04-29T05:19:36.309Z,1013.59
2017-04-29T05:20:46.236Z,1013.64
2017-04-29T05:21:56.152Z,1013.63
2017-04-29T05:23:06.013Z,1013.61
2017-04-29T05:24:15.938Z,1013.57
2017-04-29T05:25:26.168Z,1013.57
2017-04-29T05:26:35.457Z,1013.56
2017-04-29T05:27:45.362Z,1013.55
2017-04-29T05:28:55.749Z,1013.56
2017-04-29T05:30:05.664Z,1013.58
2017-04-29T05:31:15.273Z,1013.61
2017-04-29T05:32:25.206Z,1013.58
2017-04-29T05:33:35.133Z,1013.54
2017-04-29T05:34:45.455Z,1013.56
2017-04-29T05:35:54.780Z,1013.62
2017-04-29T05:37:05.008Z,1013.59
2017-04-29T05:38:15.334Z,1013.64
2017-04-29T05:39:24.652Z,1013.64
2017-04-29T05:40:35.226Z,1013.62
2017-04-29T05:41:45.135Z,1013.63
2017-04-29T05:42:55.045Z,1013.64
2017-04-29T05:44:05.273Z,1013.66
2017-04-29T05:45:14.568Z,1013.66
2017-04-29T05:46:24.635Z,1013.65
2017-04-29T05:47:34.852Z,1013.65
2017-04-29T05:48:45.100Z,1013.66
2017-04-29T05:49:55.330Z,1013.69
2017-04-29T05:51:05.555Z,1013.67
2017-04-29T05:52:15.410Z,1013.67
2017-04-29T05:53:25.332Z,1013.72
2017-04-29T05:54:35.247Z,1013.72
2017-04-29T05:55:45.488Z,1013.77
2017-04-29T05:56:55.398Z,1013.76
2017-04-29T05:58:05.869Z,1013.78
2017-04-29T05:59:15.786Z,1013.79
2017-04-29T06:00:25.704Z,1013.78
2017-04-29T06:01:35.955Z,1013.78
2017-04-29T06:02:45.870Z,1013.76
2017-04-29T06:03:56.055Z,1013.76
2017-04-29T06:05:05.983Z,1013.76
2017-04-29T06:06:16.221Z,1013.78
2017-04-29T06:07:26.142Z,1013.78
2017-04-29T06:08:35.759Z,1013.78
2017-04-29T06:09:45.522Z,1013.8
2017-04-29T06:10:55.758Z,1013.79
2017-04-29T06:12:06.000Z,1013.81
2017-04-29T06:13:15.923Z,1013.83
2017-04-29T06:14:25.316Z,1013.84
2017-04-29T06:15:35.824Z,1013.87
2017-04-29T06:16:45.440Z,1013.89
2017-04-29T06:17:55.360Z,1013.86
2017-04-29T06:19:05.591Z,1013.9
2017-04-29T06:20:15.549Z,1013.86
2017-04-29T06:21:25.635Z,1013.89
2017-04-29T06:22:35.606Z,1013.86
2017-04-29T06:23:45.220Z,1013.88
2017-04-29T06:24:55.466Z,1013.9
2017-04-29T06:26:05.400Z,1013.88
2017-04-29T06:27:15.590Z,1013.91
2017-04-29T06:28:25.504Z,1013.92
2017-04-29T06:29:35.736Z,1013.91
2017-04-29T06:30:45.673Z,1013.89
2017-04-29T06:31:55.597Z,1013.92
2017-04-29T06:33:05.696Z,1013.91
2017-04-29T06:34:15.321Z,1013.95
2017-04-29T06:35:25.545Z,1013.91
2017-04-29T06:36:35.155Z,1013.91
2017-04-29T06:37:45.085Z,1013.92
2017-04-29T06:38:54.991Z,1013.93
2017-04-29T06:40:05.257Z,1013.88
2017-04-29T06:41:15.167Z,1013.94
2017-04-29T06:42:25.075Z,1013.89
2017-04-29T06:43:34.380Z,1013.96
2017-04-29T06:44:44.604Z,1013.95
2017-04-29T06:45:54.578Z,1013.91
2017-04-29T06:47:04.537Z,1013.93
2017-04-29T06:48:14.462Z,1013.92
2017-04-29T06:49:24.077Z,1013.98
2017-04-29T06:50:34.449Z,1013.92
2017-04-29T06:51:44.050Z,1014
2017-04-29T06:52:54.273Z,1014.01
2017-04-29T06:54:04.511Z,1014.01
2017-04-29T06:55:14.132Z,1014
2017-04-29T06:56:24.621Z,1014.02
2017-04-29T06:57:34.562Z,1014.02
2017-04-29T06:58:44.487Z,1014
2017-04-29T06:59:54.446Z,1014.02
2017-04-29T07:01:04.673Z,1014.05
2017-04-29T07:02:14.529Z,1014.03
2017-04-29T07:03:24.435Z,1014.04
2017-04-29T07:04:34.368Z,1014.05
2017-04-29T07:05:43.702Z,1014.04
2017-04-29T07:06:53.612Z,1014.03
2017-04-29T07:08:03.569Z,1014.05
2017-04-29T07:09:12.874Z,1014.04
2017-04-29T07:10:22.500Z,1014.03
2017-04-29T07:11:32.123Z,1014
2017-04-29T07:12:42.061Z,1014.02
2017-04-29T07:13:52.273Z,1014.03
2017-04-29T07:15:02.497Z,1013.99
2017-04-29T07:16:12.420Z,1013.97
2017-04-29T07:17:22.031Z,1014.01
2017-04-29T07:18:31.944Z,1014.03
2017-04-29T07:19:42.135Z,1014.05
2017-04-29T07:20:51.763Z,1014.05
2017-04-29T07:22:01.673Z,1014
2017-04-29T07:23:11.297Z,1014.03
2017-04-29T07:24:21.247Z,1013.99
2017-04-29T07:25:31.480Z,1014.02
2017-04-29T07:26:41.409Z,1014.01
2017-04-29T07:27:51.348Z,1014.02
2017-04-29T07:29:00.979Z,1014.07
2017-04-29T07:30:10.603Z,1014.05
2017-04-29T07:31:20.527Z,1014.08
2017-04-29T07:32:30.130Z,1014.04
2017-04-29T07:33:40.040Z,1014.02
2017-04-29T07:34:50.312Z,1014.03
2017-04-29T07:36:00.237Z,1014.02
2017-04-29T07:37:10.450Z,1014.06
2017-04-29T07:38:20.053Z,1014.02
2017-04-29T07:39:30.282Z,1014.06
2017-04-29T07:40:40.190Z,1014.06
2017-04-29T07:41:50.408Z,1014.05
2017-04-29T07:43:00.743Z,1014.03
2017-04-29T07:44:10.701Z,1014.03
2017-04-29T07:45:20.314Z,1014.01
2017-04-29T07:46:30.603Z,1014.05
2017-04-29T07:47:40.832Z,1014.07
2017-04-29T07:48:50.861Z,1014.09
2017-04-29T07:50:00.784Z,1014.09
2017-04-29T07:51:10.707Z,1014.1
2017-04-29T07:52:20.631Z,1014.05
2017-04-29T07:53:30.236Z,1014.1
2017-04-29T07:54:40.472Z,1014.12
2017-04-29T07:55:50.439Z,1014.09
2017-04-29T07:57:00.356Z,1014.11
2017-04-29T07:58:10.276Z,1014.12
2017-04-29T07:59:19.936Z,1014.09
2017-04-29T08:00:29.901Z,1014.07
2017-04-29T08:01:39.215Z,1014.04
2017-04-29T08:02:49.146Z,1014.04
2017-04-29T08:03:59.069Z,1014.07
2017-04-29T08:05:08.378Z,1014.06
2017-04-29T08:06:18.247Z,1014.04
2017-04-29T08:07:28.173Z,1014.04
2017-04-29T08:08:37.800Z,1014.12
2017-04-29T08:09:47.426Z,1014.07
2017-04-29T08:10:56.743Z,1014.08
2017-04-29T08:12:06.778Z,1014.06
2017-04-29T08:13:16.699Z,1014.09
2017-04-29T08:14:26.642Z,1014.05
2017-04-29T08:15:36.905Z,1014.07
2017-04-29T08:16:46.308Z,1014.11
2017-04-29T08:17:56.466Z,1014.14
2017-04-29T08:19:06.088Z,1014.15
2017-04-29T08:20:16.003Z,1014.14
2017-04-29T08:21:25.925Z,1014.16
2017-04-29T08:22:35.537Z,1014.13
2017-04-29T08:23:45.554Z,1014.16
2017-04-29T08:24:55.480Z,1014.15
2017-04-29T08:26:05.409Z,1014.14
2017-04-29T08:27:15.327Z,1014.19
2017-04-29T08:28:25.241Z,1014.18
2017-04-29T08:29:35.328Z,1014.18
2017-04-29T08:30:45.245Z,1014.21
2017-04-29T08:31:54.858Z,1014.2
2017-04-29T08:33:04.768Z,1014.22
2017-04-29T08:34:14.074Z,1014.22
2017-04-29T08:35:24.612Z,1014.17
2017-04-29T08:36:34.236Z,1014.18
2017-04-29T08:37:44.456Z,1014.18
2017-04-29T08:38:54.424Z,1014.2
2017-04-29T08:40:04.694Z,1014.25
2017-04-29T08:41:15.216Z,1014.27
2017-04-29T08:42:25.426Z,1014.27
2017-04-29T08:43:35.036Z,1014.27
2017-04-29T08:44:44.055Z,1014.26
2017-04-29T08:45:53.984Z,1014.29
2017-04-29T08:47:04.217Z,1014.32
2017-04-29T08:48:13.830Z,1014.28
2017-04-29T08:49:23.451Z,1014.3
2017-04-29T08:50:33.056Z,1014.32
2017-04-29T08:51:42.983Z,1014.26
2017-04-29T08:52:53.557Z,1014.31
2017-04-29T08:54:02.874Z,1014.29
2017-04-29T08:55:12.485Z,1014.28
2017-04-29T08:56:22.735Z,1014.28
2017-04-29T08:57:32.681Z,1014.23
2017-04-29T08:58:42.732Z,1014.27
2017-04-29T08:59:52.649Z,1014.25
2017-04-29T09:01:02.570Z,1014.26
2017-04-29T09:02:12.484Z,1014.25
2017-04-29T09:03:22.438Z,1014.25
2017-04-29T09:04:32.806Z,1014.23
2017-04-29T09:05:42.421Z,1014.29
2017-04-29T09:06:52.383Z,1014.23
2017-04-29T09:08:02.705Z,1014.19
2017-04-29T09:09:12.032Z,1014.21
2017-04-29T09:10:21.630Z,1014.22
2017-04-29T09:11:31.536Z,1014.22
2017-04-29T09:12:41.456Z,1014.23
2017-04-29T09:13:51.699Z,1014.23
2017-04-29T09:15:01.618Z,1014.23
2017-04-29T09:16:11.805Z,1014.23
2017-04-29T09:17:21.724Z,1014.28
2017-04-29T09:18:31.040Z,1014.31
2017-04-29T09:19:40.654Z,1014.26
2017-04-29T09:20:50.889Z,1014.31
2017-04-29T09:22:01.169Z,1014.32
2017-04-29T09:23:10.777Z,1014.34
2017-04-29T09:24:20.712Z,1014.33
2017-04-29T09:25:30.658Z,1014.32
2017-04-29T09:26:40.281Z,1014.31
2017-04-29T09:27:50.485Z,1014.32
2017-04-29T09:29:00.401Z,1014.32
2017-04-29T09:30:10.321Z,1014.29
2017-04-29T09:31:20.244Z,1014.31
2017-04-29T09:32:30.474Z,1014.35
2017-04-29T09:33:39.957Z,1014.33
2017-04-29T09:34:49.579Z,1014.38
2017-04-29T09:35:59.507Z,1014.31
2017-04-29T09:37:09.428Z,1014.3
2017-04-29T09:38:19.344Z,1014.33
2017-04-29T09:39:28.900Z,1014.28
2017-04-29T09:40:39.126Z,1014.27
2017-04-29T09:41:49.346Z,1014.28
2017-04-29T09:42:59.573Z,1014.3
2017-04-29T09:44:09.500Z,1014.28
2017-04-29T09:45:19.973Z,1014.27
2017-04-29T09:46:29.279Z,1014.29
2017-04-29T09:47:39.506Z,1014.28
2017-04-29T09:48:49.118Z,1014.28
2017-04-29T09:49:59.048Z,1014.27
2017-04-29T09:51:08.911Z,1014.24
2017-04-29T09:52:18.825Z,1014.25
2017-04-29T09:53:28.757Z,1014.2
2017-04-29T09:54:38.677Z,1014.22
2017-04-29T09:55:48.587Z,1014.25
2017-04-29T09:56:58.578Z,1014.25
2017-04-29T09:58:08.818Z,1014.22
2017-04-29T09:59:18.756Z,1014.21
2017-04-29T10:00:28.387Z,1014.21
2017-04-29T10:01:38.004Z,1014.17
2017-04-29T10:02:48.220Z,1014.2
2017-04-29T10:03:58.134Z,1014.18
2017-04-29T10:05:07.742Z,1014.17
2017-04-29T10:06:17.663Z,1014.18
2017-04-29T10:07:27.308Z,1014.21
2017-04-29T10:08:37.167Z,1014.17
2017-04-29T10:09:46.784Z,1014.18
2017-04-29T10:10:56.699Z,1014.14
2017-04-29T10:12:06.325Z,1014.17
2017-04-29T10:13:16.549Z,1014.16
2017-04-29T10:14:26.828Z,1014.18
2017-04-29T10:15:36.741Z,1014.2
2017-04-29T10:16:46.352Z,1014.2
2017-04-29T10:17:55.965Z,1014.25
2017-04-29T10:19:06.559Z,1014.28
2017-04-29T10:20:16.784Z,1014.27
2017-04-29T10:21:27.004Z,1014.28
2017-04-29T10:22:36.625Z,1014.27
2017-04-29T10:23:46.875Z,1014.31
2017-04-29T10:24:57.132Z,1014.31
2017-04-29T10:26:07.661Z,1014.29
2017-04-29T10:27:17.315Z,1014.3
2017-04-29T10:28:27.558Z,1014.31
2017-04-29T10:29:37.175Z,1014.27
2017-04-29T10:30:46.776Z,1014.29
2017-04-29T10:31:57.251Z,1014.25
2017-04-29T10:33:07.473Z,1014.26
2017-04-29T10:34:17.387Z,1014.25
2017-04-29T10:35:27.623Z,1014.26
2017-04-29T10:36:37.539Z,1014.23
2017-04-29T10:37:47.908Z,1014.24
2017-04-29T10:38:58.137Z,1014.21
2017-04-29T10:40:08.052Z,1014.18
2017-04-29T10:41:18.387Z,1014.21
2017-04-29T10:42:28.993Z,1014.18
2017-04-29T10:43:39.518Z,1014.17
2017-04-29T10:44:49.136Z,1014.16
2017-04-29T10:45:59.374Z,1014.13
2017-04-29T10:47:09.592Z,1014.18
2017-04-29T10:48:19.495Z,1014.1
2017-04-29T10:49:29.861Z,1014.1
2017-04-29T10:50:39.804Z,1014.12
2017-04-29T10:51:50.201Z,1014.06
2017-04-29T10:53:00.292Z,1014.05
2017-04-29T10:54:10.210Z,1014.07
2017-04-29T10:55:19.921Z,1014.05
2017-04-29T10:56:29.863Z,1014.06
2017-04-29T10:57:39.494Z,1014.05
2017-04-29T10:58:49.416Z,1014.04
2017-04-29T10:59:59.338Z,1014.03
2017-04-29T11:01:09.055Z,1014.01
2017-04-29T11:02:18.680Z,1014
2017-04-29T11:03:28.943Z,1013.98
2017-04-29T11:04:39.192Z,1013.95
2017-04-29T11:05:49.115Z,1013.98
2017-04-29T11:06:59.694Z,1013.94
2017-04-29T11:08:09.605Z,1013.92
2017-04-29T11:09:19.537Z,1013.9
2017-04-29T11:10:29.451Z,1013.88
2017-04-29T11:11:39.364Z,1013.89
2017-04-29T11:12:49.315Z,1013.88
2017-04-29T11:13:59.283Z,1013.9
2017-04-29T11:15:09.212Z,1013.92
2017-04-29T11:16:19.136Z,1013.88
2017-04-29T11:17:29.358Z,1013.86
2017-04-29T11:18:39.518Z,1013.85
2017-04-29T11:19:49.496Z,1013.89
2017-04-29T11:20:59.112Z,1013.92
2017-04-29T11:22:09.338Z,1013.9
2017-04-29T11:23:19.561Z,1013.89
2017-04-29T11:24:29.771Z,1013.9
2017-04-29T11:25:39.728Z,1013.87
2017-04-29T11:26:49.989Z,1013.84
2017-04-29T11:27:59.942Z,1013.86
2017-04-29T11:29:09.592Z,1013.86
2017-04-29T11:30:19.839Z,1013.85
2017-04-29T11:31:29.765Z,1013.86
2017-04-29T11:32:39.366Z,1013.85
2017-04-29T11:33:49.285Z,1013.84
2017-04-29T11:34:59.213Z,1013.83
2017-04-29T11:36:09.687Z,1013.77
2017-04-29T11:37:19.290Z,1013.8
2017-04-29T11:38:29.207Z,1013.76
2017-04-29T11:39:39.112Z,1013.76
2017-04-29T11:40:48.724Z,1013.76
2017-04-29T11:41:59.193Z,1013.7
2017-04-29T11:43:08.805Z,1013.7
2017-04-29T11:44:18.726Z,1013.67
2017-04-29T11:45:28.348Z,1013.67
2017-04-29T11:46:38.296Z,1013.71
2017-04-29T11:47:48.553Z,1013.68
2017-04-29T11:48:58.162Z,1013.63
2017-04-29T11:50:08.081Z,1013.68
2017-04-29T11:51:17.698Z,1013.71
2017-04-29T11:52:27.926Z,1013.67
2017-04-29T11:53:38.305Z,1013.65
2017-04-29T11:54:48.532Z,1013.69
2017-04-29T11:55:58.444Z,1013.66
2017-04-29T11:57:08.672Z,1013.63
2017-04-29T11:58:17.982Z,1013.6
2017-04-29T11:59:27.454Z,1013.65
2017-04-29T12:00:37.685Z,1013.61
2017-04-29T12:01:47.598Z,1013.59
2017-04-29T12:02:57.235Z,1013.55
2017-04-29T12:04:07.386Z,1013.58
2017-04-29T12:05:17.760Z,1013.58
2017-04-29T12:06:28.209Z,1013.58
2017-04-29T12:07:38.170Z,1013.58
2017-04-29T12:08:48.118Z,1013.62
2017-04-29T12:09:58.128Z,1013.62
2017-04-29T12:11:08.195Z,1013.66
2017-04-29T12:12:18.147Z,1013.69
2017-04-29T12:13:28.072Z,1013.64
2017-04-29T12:14:38.004Z,1013.66
2017-04-29T12:15:48.268Z,1013.61
2017-04-29T12:16:58.358Z,1013.61
2017-04-29T12:18:08.338Z,1013.61
2017-04-29T12:19:18.346Z,1013.63
2017-04-29T12:20:28.937Z,1013.59
2017-04-29T12:21:38.580Z,1013.58
2017-04-29T12:22:48.640Z,1013.54
2017-04-29T12:23:58.588Z,1013.54
2017-04-29T12:25:08.834Z,1013.6
2017-04-29T12:26:18.449Z,1013.63
2017-04-29T12:27:28.369Z,1013.62
2017-04-29T12:28:38.905Z,1013.58
2017-04-29T12:29:48.833Z,1013.58
2017-04-29T12:30:58.757Z,1013.58
2017-04-29T12:32:08.993Z,1013.56
2017-04-29T12:33:18.986Z,1013.56
2017-04-29T12:34:29.516Z,1013.58
2017-04-29T12:35:39.441Z,1013.59
2017-04-29T12:36:49.657Z,1013.58
2017-04-29T12:37:59.572Z,1013.53
2017-04-29T12:39:09.799Z,1013.54
2017-04-29T12:40:19.691Z,1013.54
2017-04-29T12:41:29.618Z,1013.55
2017-04-29T12:42:39.548Z,1013.55
2017-04-29T12:43:49.470Z,1013.53
2017-04-29T12:44:59.419Z,1013.54
2017-04-29T12:46:09.684Z,1013.49
2017-04-29T12:47:19.618Z,1013.5
2017-04-29T12:48:29.860Z,1013.47
2017-04-29T12:49:39.778Z,1013.49
2017-04-29T12:50:50.008Z,1013.45
2017-04-29T12:52:00.072Z,1013.48
2017-04-29T12:53:09.986Z,1013.45
2017-04-29T12:54:19.602Z,1013.5
2017-04-29T12:55:29.555Z,1013.45
2017-04-29T12:56:39.478Z,1013.5
2017-04-29T12:57:49.552Z,1013.49
2017-04-29T12:58:59.792Z,1013.5
2017-04-29T13:00:10.015Z,1013.48
2017-04-29T13:01:19.927Z,1013.48
2017-04-29T13:02:29.838Z,1013.44
2017-04-29T13:03:39.411Z,1013.42
2017-04-29T13:04:49.333Z,1013.42
2017-04-29T13:05:59.267Z,1013.4
2017-04-29T13:07:08.876Z,1013.4
2017-04-29T13:08:18.490Z,1013.39
2017-04-29T13:09:28.709Z,1013.4
2017-04-29T13:10:38.627Z,1013.39
2017-04-29T13:11:48.550Z,1013.39
2017-04-29T13:12:58.765Z,1013.38
2017-04-29T13:14:08.391Z,1013.38
2017-04-29T13:15:18.048Z,1013.34
2017-04-29T13:16:27.963Z,1013.37
2017-04-29T13:17:37.885Z,1013.36
2017-04-29T13:18:48.128Z,1013.37
2017-04-29T13:19:58.351Z,1013.33
2017-04-29T13:21:08.423Z,1013.31
2017-04-29T13:22:18.722Z,1013.32
2017-04-29T13:23:28.324Z,1013.32
2017-04-29T13:24:38.548Z,1013.33
2017-04-29T13:25:48.466Z,1013.32
2017-04-29T13:26:58.337Z,1013.33
2017-04-29T13:28:08.264Z,1013.36
2017-04-29T13:29:17.887Z,1013.3
2017-04-29T13:30:27.819Z,1013.29
2017-04-29T13:31:37.442Z,1013.26
2017-04-29T13:32:47.826Z,1013.26
2017-04-29T13:33:57.442Z,1013.22
2017-04-29T13:35:07.075Z,1013.21
2017-04-29T13:36:17.300Z,1013.2
2017-04-29T13:37:27.229Z,1013.18
2017-04-29T13:38:37.390Z,1013.15
2017-04-29T13:39:47.638Z,1013.15
2017-04-29T13:40:56.960Z,1013.16
2017-04-29T13:42:06.887Z,1013.14
2017-04-29T13:43:16.518Z,1013.14
2017-04-29T13:44:26.298Z,1013.14
2017-04-29T13:45:36.545Z,1013.11
2017-04-29T13:46:46.459Z,1013.09
2017-04-29T13:47:56.396Z,1013.07
2017-04-29T13:49:06.062Z,1013.06
2017-04-29T13:50:16.555Z,1013.06
2017-04-29T13:51:26.479Z,1013.1
2017-04-29T13:52:36.404Z,1013.09
2017-04-29T13:53:46.713Z,1013.05
2017-04-29T13:54:56.955Z,1013.08
2017-04-29T13:56:07.563Z,1013.05
2017-04-29T13:57:16.890Z,1013.04
2017-04-29T13:58:26.825Z,1013.02
2017-04-29T13:59:36.468Z,1013.03
2017-04-29T14:00:46.080Z,1013.02
2017-04-29T14:01:56.463Z,1013.02
2017-04-29T14:03:06.387Z,1012.99
2017-04-29T14:04:16.324Z,1013.03
2017-04-29T14:05:26.564Z,1013.02
2017-04-29T14:06:36.788Z,1013.04
2017-04-29T14:07:46.507Z,1012.99
2017-04-29T14:08:56.751Z,1013